createdAt,value
2022-08-06T07:44:57.372Z,101578.00
2022-08-06T07:45:11.249Z,101578.00
2022-08-06T07:45:21.229Z,101578.00
2022-08-06T07:45:38.066Z,101576.00
2022-08-06T07:45:54.803Z,101576.00
2022-08-06T07:45:56.226Z,101576.00
2022-08-06T07:46:05.647Z,101568.00
2022-08-06T07:46:16.048Z,101576.00
2022-08-06T07:46:26.729Z,101568.00
2022-08-06T07:46:38.230Z,101580.00
2022-08-06T07:46:52.070Z,101578.00
2022-08-06T07:47:01.527Z,101576.00
2022-08-06T07:47:23.972Z,101576.00
2022-08-06T07:47:37.052Z,101580.00
2022-08-06T07:47:54.380Z,101578.00
2022-08-06T07:47:54.760Z,101580.00
2022-08-06T07:48:01.631Z,101576.00
2022-08-06T07:48:11.845Z,101576.00
2022-08-06T07:48:22.831Z,101568.00
2022-08-06T07:48:33.836Z,101566.00
2022-08-06T07:48:52.399Z,101568.00
2022-08-06T07:48:57.243Z,101568.00
2022-08-06T07:49:08.560Z,101568.00
2022-08-06T07:49:20.432Z,101568.00
2022-08-06T07:50:00.025Z,101566.00
2022-08-06T07:50:00.034Z,101568.00
2022-08-06T07:50:01.107Z,101568.00
2022-08-06T07:50:07.679Z,101568.00
2022-08-06T07:50:23.391Z,101566.00
2022-08-06T07:50:30.981Z,101568.00
2022-08-06T07:50:42.251Z,101576.00
2022-08-06T07:50:53.787Z,101578.00
2022-08-06T07:51:04.768Z,101578.00
2022-08-06T07:51:14.090Z,101578.00
2022-08-06T07:51:33.913Z,101578.00
2022-08-06T07:51:37.511Z,101580.00
2022-08-06T07:51:49.447Z,101578.00
2022-08-06T07:52:01.571Z,101578.00
2022-08-06T07:52:11.662Z,101576.00
2022-08-06T07:52:26.714Z,101578.00
2022-08-06T07:52:34.084Z,101576.00
2022-08-06T07:52:44.860Z,101578.00
2022-08-06T07:52:55.178Z,101576.00
2022-08-06T07:53:07.254Z,101576.00
2022-08-06T07:53:18.486Z,101576.00
2022-08-06T07:53:41.134Z,101576.00
2022-08-06T07:53:56.153Z,101578.00
2022-08-06T07:53:57.561Z,101578.00
2022-08-06T07:54:05.860Z,101578.00
2022-08-06T07:54:16.804Z,101576.00
2022-08-06T07:54:34.182Z,101578.00
2022-08-06T07:54:40.688Z,101576.00
2022-08-06T07:54:51.173Z,101578.00
2022-08-06T07:55:03.137Z,101576.00
2022-08-06T07:55:14.724Z,101580.00
2022-08-06T07:55:36.904Z,101578.00
2022-08-06T07:55:40.918Z,101582.00
2022-08-06T07:55:50.272Z,101578.00
2022-08-06T07:56:01.744Z,101578.00
2022-08-06T07:56:13.245Z,101578.00
2022-08-06T07:56:23.902Z,101580.00
2022-08-06T07:56:35.187Z,101582.00
2022-08-06T07:56:59.802Z,101580.00
2022-08-06T07:57:01.803Z,101576.00
2022-08-06T07:57:14.860Z,101578.00
2022-08-06T07:57:25.680Z,101580.00
2022-08-06T07:57:55.744Z,101580.00
2022-08-06T07:57:55.923Z,101578.00
2022-08-06T07:57:58.899Z,101578.00
2022-08-06T07:58:08.672Z,101576.00
2022-08-06T07:58:18.739Z,101580.00
2022-08-06T07:58:30.607Z,101578.00
2022-08-06T07:58:45.758Z,101582.00
2022-08-06T07:58:52.294Z,101580.00
2022-08-06T07:59:03.531Z,101582.00
2022-08-06T07:59:14.978Z,101580.00
2022-08-06T07:59:24.162Z,101580.00
2022-08-06T07:59:35.649Z,101578.00
2022-08-06T07:59:46.880Z,101582.00
2022-08-06T07:59:58.374Z,101578.00
2022-08-06T08:00:13.906Z,101578.00
2022-08-06T08:00:21.553Z,101580.00
2022-08-06T08:00:31.838Z,101576.00
2022-08-06T08:00:49.454Z,101578.00
2022-08-06T08:00:55.403Z,101576.00
2022-08-06T08:01:07.180Z,101576.00
2022-08-06T08:01:19.521Z,101578.00
2022-08-06T08:01:36.633Z,101576.00
2022-08-06T08:01:40.804Z,101580.00
2022-08-06T08:01:52.731Z,101580.00
2022-08-06T08:02:04.412Z,101580.00
2022-08-06T08:02:16.122Z,101580.00
2022-08-06T08:02:29.743Z,101580.00
2022-08-06T08:02:39.200Z,101584.00
2022-08-06T08:02:50.815Z,101582.00
2022-08-06T08:03:02.068Z,101582.00
2022-08-06T08:03:43.586Z,101584.00
2022-08-06T08:03:56.245Z,101582.00
2022-08-06T08:03:56.717Z,101584.00
2022-08-06T08:03:56.803Z,101584.00
2022-08-06T08:04:01.287Z,101584.00
2022-08-06T08:04:34.319Z,101588.00
2022-08-06T08:04:35.788Z,101586.00
2022-08-06T08:04:51.630Z,101584.00
2022-08-06T08:04:52.518Z,101584.00
2022-08-06T08:05:00.499Z,101582.00
2022-08-06T08:05:11.043Z,101584.00
2022-08-06T08:05:39.061Z,101582.00
2022-08-06T08:05:39.289Z,101586.00
2022-08-06T08:06:00.378Z,101586.00
2022-08-06T08:06:00.613Z,101586.00
2022-08-06T08:06:10.326Z,101586.00
2022-08-06T08:06:22.067Z,101584.00
2022-08-06T08:06:36.202Z,101586.00
2022-08-06T08:06:45.283Z,101584.00
2022-08-06T08:06:57.119Z,101584.00
2022-08-06T08:07:12.964Z,101582.00
2022-08-06T08:07:20.438Z,101582.00
2022-08-06T08:07:37.562Z,101582.00
2022-08-06T08:07:53.408Z,101580.00
2022-08-06T08:07:57.558Z,101584.00
2022-08-06T08:08:09.393Z,101586.00
2022-08-06T08:08:18.618Z,101582.00
2022-08-06T08:08:30.602Z,101582.00
2022-08-06T08:08:41.833Z,101582.00
2022-08-06T08:08:53.641Z,101580.00
2022-08-06T08:09:04.877Z,101582.00
2022-08-06T08:09:29.073Z,101580.00
2022-08-06T08:09:29.631Z,101580.00
2022-08-06T08:10:01.617Z,101582.00
2022-08-06T08:10:02.935Z,101582.00
2022-08-06T08:10:04.342Z,101580.00
2022-08-06T08:10:15.671Z,101580.00
2022-08-06T08:10:28.691Z,101578.00
2022-08-06T08:10:38.532Z,101580.00
2022-08-06T08:10:50.076Z,101580.00
2022-08-06T08:11:01.306Z,101578.00
2022-08-06T08:11:12.509Z,101578.00
2022-08-06T08:11:37.577Z,101576.00
2022-08-06T08:11:38.498Z,101580.00
2022-08-06T08:12:16.962Z,101580.00
2022-08-06T08:12:25.842Z,101578.00
2022-08-06T08:12:26.104Z,101580.00
2022-08-06T08:12:29.627Z,101582.00
2022-08-06T08:12:37.639Z,101582.00
2022-08-06T08:12:52.255Z,101586.00
2022-08-06T08:13:03.416Z,101580.00
2022-08-06T08:13:11.962Z,101588.00
2022-08-06T08:13:40.669Z,101584.00
2022-08-06T08:13:41.698Z,101586.00
2022-08-06T08:13:46.504Z,101586.00
2022-08-06T08:13:56.915Z,101584.00
2022-08-06T08:14:07.423Z,101588.00
2022-08-06T08:14:19.377Z,101586.00
2022-08-06T08:14:30.606Z,101588.00
2022-08-06T08:14:42.386Z,101586.00
2022-08-06T08:14:54.319Z,101586.00
2022-08-06T08:15:06.529Z,101588.00
2022-08-06T08:15:18.580Z,101586.00
2022-08-06T08:15:28.991Z,101586.00
2022-08-06T08:15:43.474Z,101586.00
2022-08-06T08:15:50.695Z,101586.00
2022-08-06T08:16:02.847Z,101584.00
2022-08-06T08:16:20.312Z,101586.00
2022-08-06T08:16:28.617Z,101588.00
2022-08-06T08:16:38.468Z,101586.00
2022-08-06T08:16:49.462Z,101586.00
2022-08-06T08:17:00.976Z,101584.00
2022-08-06T08:17:12.214Z,101584.00
2022-08-06T08:17:34.617Z,101584.00
2022-08-06T08:17:35.899Z,101584.00
2022-08-06T08:17:57.607Z,101580.00
2022-08-06T08:17:59.069Z,101584.00
2022-08-06T08:18:10.300Z,101584.00
2022-08-06T08:18:21.808Z,101582.00
2022-08-06T08:18:33.705Z,101582.00
2022-08-06T08:18:45.402Z,101584.00
2022-08-06T08:18:56.704Z,101582.00
2022-08-06T08:19:08.956Z,101584.00
2022-08-06T08:19:18.595Z,101582.00
2022-08-06T08:19:34.821Z,101584.00
2022-08-06T08:19:41.790Z,101582.00
2022-08-06T08:19:53.204Z,101584.00
2022-08-06T08:20:03.342Z,101584.00
2022-08-06T08:20:16.497Z,101582.00
2022-08-06T08:20:27.791Z,101582.00
2022-08-06T08:20:38.724Z,101582.00
2022-08-06T08:20:53.065Z,101580.00
2022-08-06T08:21:00.969Z,101582.00
2022-08-06T08:21:11.243Z,101578.00
2022-08-06T08:21:23.362Z,101582.00
2022-08-06T08:21:35.235Z,101578.00
2022-08-06T08:21:46.478Z,101580.00
2022-08-06T08:21:57.997Z,101582.00
2022-08-06T08:22:09.237Z,101580.00
2022-08-06T08:22:24.111Z,101584.00
2022-08-06T08:22:31.437Z,101580.00
2022-08-06T08:22:48.617Z,101586.00
2022-08-06T08:22:54.578Z,101580.00
2022-08-06T08:23:06.085Z,101586.00
2022-08-06T08:23:25.749Z,101582.00
2022-08-06T08:23:36.343Z,101580.00
2022-08-06T08:23:45.718Z,101582.00
2022-08-06T08:23:55.713Z,101582.00
2022-08-06T08:24:04.884Z,101580.00
2022-08-06T08:24:16.397Z,101586.00
2022-08-06T08:24:27.634Z,101584.00
2022-08-06T08:24:39.198Z,101584.00
2022-08-06T08:24:54.091Z,101582.00
2022-08-06T08:25:01.726Z,101584.00
2022-08-06T08:25:13.197Z,101584.00
2022-08-06T08:25:40.173Z,101584.00
2022-08-06T08:25:40.695Z,101586.00
2022-08-06T08:25:48.052Z,101582.00
2022-08-06T08:25:59.297Z,101584.00
2022-08-06T08:26:10.781Z,101584.00
2022-08-06T08:26:21.788Z,101582.00
2022-08-06T08:27:03.019Z,101582.00
2022-08-06T08:27:04.445Z,101584.00
2022-08-06T08:27:11.838Z,101586.00
2022-08-06T08:27:12.325Z,101582.00
2022-08-06T08:27:23.431Z,101582.00
2022-08-06T08:27:32.266Z,101586.00
2022-08-06T08:27:43.954Z,101586.00
2022-08-06T08:27:55.284Z,101586.00
2022-08-06T08:28:11.496Z,101586.00
2022-08-06T08:28:19.213Z,101584.00
2022-08-06T08:28:29.992Z,101584.00
2022-08-06T08:28:41.478Z,101586.00
2022-08-06T08:28:52.570Z,101586.00
2022-08-06T08:29:04.042Z,101584.00
2022-08-06T08:29:17.520Z,101586.00
2022-08-06T08:29:31.429Z,101584.00
2022-08-06T08:29:39.157Z,101584.00
2022-08-06T08:29:55.139Z,101584.00
2022-08-06T08:30:03.712Z,101586.00
2022-08-06T08:30:15.369Z,101586.00
2022-08-06T08:30:23.500Z,101586.00
2022-08-06T08:30:35.440Z,101584.00
2022-08-06T08:30:48.217Z,101584.00
2022-08-06T08:30:56.756Z,101584.00
2022-08-06T08:31:15.786Z,101584.00
2022-08-06T08:31:25.614Z,101582.00
2022-08-06T08:31:31.855Z,101580.00
2022-08-06T08:31:42.747Z,101582.00
2022-08-06T08:31:59.451Z,101582.00
2022-08-06T08:32:16.888Z,101584.00
2022-08-06T08:32:19.475Z,101584.00
2022-08-06T08:32:28.757Z,101582.00
2022-08-06T08:32:40.423Z,101584.00
2022-08-06T08:32:52.372Z,101584.00
2022-08-06T08:33:05.225Z,101584.00
2022-08-06T08:33:18.109Z,101582.00
2022-08-06T08:33:27.586Z,101584.00
2022-08-06T08:33:39.624Z,101586.00
2022-08-06T08:33:50.812Z,101584.00
2022-08-06T08:34:02.605Z,101586.00
2022-08-06T08:34:14.366Z,101584.00
2022-08-06T08:34:27.259Z,101584.00
2022-08-06T08:34:36.483Z,101584.00
2022-08-06T08:34:52.340Z,101582.00
2022-08-06T08:34:59.012Z,101584.00
2022-08-06T08:35:09.624Z,101584.00
2022-08-06T08:35:21.130Z,101586.00
2022-08-06T08:35:31.568Z,101582.00
2022-08-06T08:35:50.604Z,101582.00
2022-08-06T08:36:01.236Z,101584.00
2022-08-06T08:36:07.348Z,101584.00
2022-08-06T08:36:18.482Z,101582.00
2022-08-06T08:36:30.682Z,101586.00
2022-08-06T08:36:39.987Z,101580.00
2022-08-06T08:36:51.491Z,101580.00
2022-08-06T08:37:02.737Z,101584.00
2022-08-06T08:37:18.130Z,101582.00
2022-08-06T08:37:25.451Z,101580.00
2022-08-06T08:37:37.006Z,101580.00
2022-08-06T08:37:48.615Z,101580.00
2022-08-06T08:37:59.768Z,101580.00
2022-08-06T08:38:11.533Z,101584.00
2022-08-06T08:38:26.928Z,101584.00
2022-08-06T08:38:34.957Z,101584.00
2022-08-06T08:38:46.222Z,101584.00
2022-08-06T08:38:58.227Z,101582.00
2022-08-06T08:39:09.523Z,101584.00
2022-08-06T08:39:24.406Z,101586.00
2022-08-06T08:39:33.623Z,101584.00
2022-08-06T08:39:42.943Z,101584.00
2022-08-06T08:39:55.914Z,101582.00
2022-08-06T08:40:05.651Z,101582.00
2022-08-06T08:40:17.695Z,101580.00
2022-08-06T08:40:28.920Z,101584.00
2022-08-06T08:40:41.589Z,101584.00
2022-08-06T08:40:50.693Z,101584.00
2022-08-06T08:41:02.294Z,101584.00
2022-08-06T08:41:13.984Z,101580.00
2022-08-06T08:41:48.335Z,101582.00
2022-08-06T08:41:48.760Z,101582.00
2022-08-06T08:41:50.396Z,101584.00
2022-08-06T08:41:59.567Z,101586.00
2022-08-06T08:42:11.068Z,101584.00
2022-08-06T08:42:31.852Z,101582.00
2022-08-06T08:42:36.338Z,101584.00
2022-08-06T08:42:45.710Z,101584.00
2022-08-06T08:42:58.106Z,101584.00
2022-08-06T08:43:09.931Z,101584.00
2022-08-06T08:43:21.883Z,101584.00
2022-08-06T08:43:59.362Z,101582.00
2022-08-06T08:44:01.017Z,101584.00
2022-08-06T08:44:01.119Z,101584.00
2022-08-06T08:44:09.642Z,101584.00
2022-08-06T08:44:26.982Z,101582.00
2022-08-06T08:44:32.945Z,101582.00
2022-08-06T08:44:44.178Z,101584.00
2022-08-06T08:44:55.821Z,101586.00
2022-08-06T08:45:12.699Z,101586.00
2022-08-06T08:45:19.251Z,101582.00
2022-08-06T08:45:33.624Z,101586.00
2022-08-06T08:45:41.005Z,101582.00
2022-08-06T08:45:51.288Z,101582.00
2022-08-06T08:46:02.574Z,101588.00
2022-08-06T08:46:13.820Z,101584.00
2022-08-06T08:46:31.335Z,101586.00
2022-08-06T08:46:38.130Z,101584.00
2022-08-06T08:46:57.409Z,101586.00
2022-08-06T08:47:00.972Z,101582.00
2022-08-06T08:47:12.864Z,101584.00
2022-08-06T08:47:24.631Z,101584.00
2022-08-06T08:47:51.190Z,101584.00
2022-08-06T08:47:53.486Z,101584.00
2022-08-06T08:48:00.135Z,101582.00
2022-08-06T08:48:10.517Z,101582.00
2022-08-06T08:48:21.780Z,101582.00
2022-08-06T08:48:33.733Z,101586.00
2022-08-06T08:48:44.469Z,101582.00
2022-08-06T08:48:55.943Z,101582.00
2022-08-06T08:49:08.200Z,101584.00
2022-08-06T08:49:19.436Z,101582.00
2022-08-06T08:49:31.386Z,101584.00
2022-08-06T08:49:47.209Z,101582.00
2022-08-06T08:49:54.317Z,101586.00
2022-08-06T08:50:05.552Z,101586.00
2022-08-06T08:50:18.546Z,101582.00
2022-08-06T08:50:27.755Z,101584.00
2022-08-06T08:50:39.329Z,101584.00
2022-08-06T08:50:50.555Z,101584.00
2022-08-06T08:51:00.860Z,101584.00
2022-08-06T08:51:12.347Z,101582.00
2022-08-06T08:51:23.590Z,101582.00
2022-08-06T08:51:36.686Z,101584.00
2022-08-06T08:51:47.018Z,101584.00
2022-08-06T08:51:58.796Z,101584.00
2022-08-06T08:52:11.687Z,101584.00
2022-08-06T08:52:21.342Z,101588.00
2022-08-06T08:52:33.173Z,101584.00
2022-08-06T08:52:44.381Z,101584.00
2022-08-06T08:52:56.279Z,101586.00
2022-08-06T08:53:07.524Z,101586.00
2022-08-06T08:53:44.883Z,101584.00
2022-08-06T08:53:45.643Z,101582.00
2022-08-06T08:53:45.866Z,101584.00
2022-08-06T08:53:53.555Z,101586.00
2022-08-06T08:54:05.394Z,101582.00
2022-08-06T08:54:17.464Z,101584.00
2022-08-06T08:54:28.746Z,101584.00
2022-08-06T08:54:40.218Z,101584.00
2022-08-06T08:54:51.454Z,101584.00
2022-08-06T08:55:02.960Z,101584.00
2022-08-06T08:57:07.246Z,101582.00
2022-08-06T08:57:07.338Z,101582.00
2022-08-06T08:57:08.111Z,101582.00
2022-08-06T08:57:08.355Z,101584.00
2022-08-06T08:57:09.342Z,101584.00
2022-08-06T08:57:09.344Z,101584.00
2022-08-06T08:57:10.099Z,101584.00
2022-08-06T08:57:10.263Z,101584.00
2022-08-06T08:57:10.698Z,101582.00
2022-08-06T08:58:36.060Z,101582.00
2022-08-06T08:58:37.045Z,101586.00
2022-08-06T08:58:37.944Z,101584.00
2022-08-06T08:58:38.228Z,101586.00
2022-08-06T08:58:39.622Z,101586.00
2022-08-06T08:58:40.331Z,101586.00
2022-08-06T08:58:41.435Z,101588.00
2022-08-06T08:58:42.751Z,101586.00
2022-08-06T08:58:46.804Z,101586.00
2022-08-06T08:59:00.852Z,101586.00
2022-08-06T08:59:56.325Z,101586.00
2022-08-06T08:59:57.309Z,101586.00
2022-08-06T08:59:58.320Z,101588.00
2022-08-06T08:59:58.827Z,101588.00
2022-08-06T08:59:59.616Z,101586.00
2022-08-06T09:00:02.571Z,101586.00
2022-08-06T09:00:11.706Z,101586.00
2022-08-06T09:00:26.776Z,101586.00
2022-08-06T09:00:33.854Z,101586.00
2022-08-06T09:00:43.888Z,101582.00
2022-08-06T09:00:55.816Z,101586.00
2022-08-06T09:01:07.236Z,101588.00
2022-08-06T09:01:52.536Z,101582.00
2022-08-06T09:01:52.605Z,101588.00
2022-08-06T09:01:53.699Z,101586.00
2022-08-06T09:01:57.375Z,101582.00
2022-08-06T09:02:04.627Z,101588.00
2022-08-06T09:02:14.855Z,101588.00
2022-08-06T09:02:26.698Z,101586.00
2022-08-06T09:02:37.934Z,101588.00
2022-08-06T09:02:50.872Z,101588.00
2022-08-06T09:03:02.494Z,101586.00
2022-08-06T09:03:13.725Z,101584.00
2022-08-06T09:03:25.225Z,101586.00
2022-08-06T09:03:36.588Z,101586.00
2022-08-06T09:03:47.537Z,101586.00
2022-08-06T09:03:58.527Z,101586.00
2022-08-06T09:04:10.507Z,101588.00
2022-08-06T09:04:24.676Z,101586.00
2022-08-06T09:04:34.016Z,101586.00
2022-08-06T09:04:45.479Z,101584.00
2022-08-06T09:04:58.357Z,101588.00
2022-08-06T09:05:08.046Z,101588.00
2022-08-06T09:05:20.019Z,101588.00
2022-08-06T09:05:34.615Z,101588.00
2022-08-06T09:05:47.513Z,101584.00
2022-08-06T09:05:54.719Z,101588.00
2022-08-06T09:06:06.460Z,101586.00
2022-08-06T09:06:29.229Z,101588.00
2022-08-06T09:06:30.905Z,101588.00
2022-08-06T09:06:41.954Z,101588.00
2022-08-06T09:06:53.785Z,101584.00
2022-08-06T09:07:05.266Z,101584.00
2022-08-06T09:07:35.182Z,101586.00
2022-08-06T09:07:36.615Z,101586.00
2022-08-06T09:07:41.458Z,101586.00
2022-08-06T09:08:01.420Z,101588.00
2022-08-06T09:08:04.801Z,101586.00
2022-08-06T09:08:18.988Z,101586.00
2022-08-06T09:08:59.508Z,101586.00
2022-08-06T09:09:01.301Z,101586.00
2022-08-06T09:09:01.407Z,101588.00
2022-08-06T09:09:04.937Z,101588.00
2022-08-06T09:09:16.219Z,101586.00
2022-08-06T09:09:30.231Z,101586.00
2022-08-06T09:09:37.702Z,101586.00
2022-08-06T09:10:01.331Z,101586.00
2022-08-06T09:10:03.702Z,101586.00
2022-08-06T09:10:16.110Z,101586.00
2022-08-06T09:10:23.618Z,101588.00
2022-08-06T09:10:36.396Z,101588.00
2022-08-06T09:10:45.087Z,101588.00
2022-08-06T09:10:57.017Z,101588.00
2022-08-06T09:11:12.289Z,101590.00
2022-08-06T09:12:02.892Z,101588.00
2022-08-06T09:12:04.321Z,101590.00
2022-08-06T09:12:04.902Z,101590.00
2022-08-06T09:12:05.506Z,101590.00
2022-08-06T09:12:19.626Z,101590.00
2022-08-06T09:12:34.201Z,101590.00
2022-08-06T09:12:34.416Z,101588.00
2022-08-06T09:12:46.002Z,101592.00
2022-08-06T09:12:54.606Z,101596.00
2022-08-06T09:13:22.477Z,101590.00
2022-08-06T09:13:22.740Z,101590.00
2022-08-06T09:13:50.706Z,101590.00
2022-08-06T09:13:51.767Z,101592.00
2022-08-06T09:13:57.359Z,101590.00
2022-08-06T09:14:05.446Z,101592.00
2022-08-06T09:14:15.778Z,101592.00
2022-08-06T09:14:28.270Z,101592.00
2022-08-06T09:14:38.943Z,101590.00
2022-08-06T09:14:49.283Z,101592.00
2022-08-06T09:15:00.572Z,101590.00
2022-08-06T09:15:12.041Z,101592.00
2022-08-06T09:15:23.576Z,101592.00
2022-08-06T09:15:40.733Z,101588.00
2022-08-06T09:15:51.439Z,101590.00
2022-08-06T09:15:58.633Z,101590.00
2022-08-06T09:16:19.153Z,101592.00
2022-08-06T09:16:32.179Z,101590.00
2022-08-06T09:16:33.782Z,101588.00
2022-08-06T09:16:50.304Z,101590.00
2022-08-06T09:16:56.465Z,101588.00
2022-08-06T09:17:10.600Z,101588.00
2022-08-06T09:18:10.914Z,101588.00
2022-08-06T09:18:11.637Z,101592.00
2022-08-06T09:18:11.977Z,101586.00
2022-08-06T09:18:12.383Z,101588.00
2022-08-06T09:18:12.479Z,101590.00
2022-08-06T09:18:27.210Z,101586.00
2022-08-06T09:18:30.579Z,101586.00
2022-08-06T09:18:42.034Z,101588.00
2022-08-06T09:18:53.933Z,101588.00
2022-08-06T09:19:05.168Z,101590.00
2022-08-06T09:19:17.109Z,101592.00
2022-08-06T09:19:38.103Z,101590.00
2022-08-06T09:19:41.625Z,101590.00
2022-08-06T09:19:51.211Z,101588.00
2022-08-06T09:20:02.688Z,101588.00
2022-08-06T09:20:13.941Z,101590.00
2022-08-06T09:20:25.898Z,101588.00
2022-08-06T09:20:45.725Z,101590.00
2022-08-06T09:20:49.959Z,101588.00
2022-08-06T09:21:01.930Z,101590.00
2022-08-06T09:21:12.945Z,101590.00
2022-08-06T09:21:23.594Z,101590.00
2022-08-06T09:21:35.098Z,101590.00
2022-08-06T09:21:46.337Z,101592.00
2022-08-06T09:21:58.235Z,101592.00
2022-08-06T09:22:09.822Z,101590.00
2022-08-06T09:22:23.348Z,101590.00
2022-08-06T09:22:31.728Z,101590.00
2022-08-06T09:22:42.956Z,101588.00
2022-08-06T09:22:54.448Z,101588.00
2022-08-06T09:23:07.750Z,101588.00
2022-08-06T09:23:19.613Z,101588.00
2022-08-06T09:23:29.319Z,101590.00
2022-08-06T09:23:57.586Z,101586.00
2022-08-06T09:23:57.888Z,101588.00
2022-08-06T09:24:04.867Z,101586.00
2022-08-06T09:24:16.658Z,101586.00
2022-08-06T09:24:33.727Z,101588.00
2022-08-06T09:24:40.300Z,101586.00
2022-08-06T09:24:51.598Z,101586.00
2022-08-06T09:25:07.390Z,101586.00
2022-08-06T09:25:19.695Z,101588.00
2022-08-06T09:25:27.773Z,101588.00
2022-08-06T09:25:41.047Z,101590.00
2022-08-06T09:25:50.154Z,101586.00
2022-08-06T09:26:00.920Z,101586.00
2022-08-06T09:26:12.476Z,101584.00
2022-08-06T09:26:52.462Z,101586.00
2022-08-06T09:26:54.234Z,101586.00
2022-08-06T09:26:54.583Z,101590.00
2022-08-06T09:27:03.154Z,101588.00
2022-08-06T09:27:46.899Z,101588.00
2022-08-06T09:27:47.594Z,101584.00
2022-08-06T09:27:48.790Z,101588.00
2022-08-06T09:27:59.293Z,101586.00
2022-08-06T09:27:59.508Z,101584.00
2022-08-06T09:28:08.744Z,101590.00
2022-08-06T09:28:20.354Z,101588.00
2022-08-06T09:28:31.516Z,101588.00
2022-08-06T09:28:43.142Z,101588.00
2022-08-06T09:28:54.380Z,101588.00
2022-08-06T09:29:09.304Z,101586.00
2022-08-06T09:29:24.092Z,101592.00
2022-08-06T09:29:33.424Z,101588.00
2022-08-06T09:29:42.319Z,101588.00
2022-08-06T09:30:04.245Z,101588.00
2022-08-06T09:30:25.569Z,101588.00
2022-08-06T09:30:26.896Z,101590.00
2022-08-06T09:30:31.095Z,101588.00
2022-08-06T09:30:40.266Z,101588.00
2022-08-06T09:30:51.762Z,101588.00
2022-08-06T09:31:03.005Z,101586.00
2022-08-06T09:31:22.456Z,101588.00
2022-08-06T09:31:43.860Z,101588.00
2022-08-06T09:31:44.468Z,101586.00
2022-08-06T09:31:50.375Z,101586.00
2022-08-06T09:32:01.507Z,101586.00
2022-08-06T09:32:18.255Z,101588.00
2022-08-06T09:32:24.284Z,101586.00
2022-08-06T09:32:35.268Z,101586.00
2022-08-06T09:32:55.188Z,101584.00
2022-08-06T09:33:04.229Z,101588.00
2022-08-06T09:34:18.975Z,101588.00
2022-08-06T09:34:19.024Z,101584.00
2022-08-06T09:34:28.758Z,101586.00
2022-08-06T09:34:29.054Z,101584.00
2022-08-06T09:34:30.102Z,101586.00
2022-08-06T09:34:30.104Z,101586.00
2022-08-06T09:34:32.832Z,101588.00
2022-08-06T09:34:39.007Z,101588.00
2022-08-06T09:34:46.667Z,101588.00
2022-08-06T09:34:57.574Z,101588.00
2022-08-06T09:35:17.054Z,101586.00
2022-08-06T09:35:42.997Z,101586.00
2022-08-06T09:35:44.994Z,101590.00
2022-08-06T09:35:46.159Z,101588.00
2022-08-06T09:35:55.504Z,101588.00
2022-08-06T09:36:07.004Z,101592.00
2022-08-06T09:36:30.370Z,101590.00
2022-08-06T09:36:30.993Z,101590.00
2022-08-06T09:36:42.517Z,101592.00
2022-08-06T09:36:57.001Z,101592.00
2022-08-06T09:37:04.790Z,101590.00
2022-08-06T09:37:18.068Z,101592.00
2022-08-06T09:37:28.346Z,101592.00
2022-08-06T09:37:53.376Z,101592.00
2022-08-06T09:37:54.160Z,101592.00
2022-08-06T09:38:02.985Z,101596.00
2022-08-06T09:38:16.318Z,101592.00
2022-08-06T09:38:25.893Z,101592.00
2022-08-06T09:38:37.392Z,101594.00
2022-08-06T09:38:48.638Z,101594.00
2022-08-06T09:39:00.309Z,101594.00
2022-08-06T09:39:12.593Z,101596.00
2022-08-06T09:39:23.898Z,101592.00
2022-08-06T09:40:00.331Z,101592.00
2022-08-06T09:40:06.343Z,101596.00
2022-08-06T09:40:06.370Z,101598.00
2022-08-06T09:40:13.543Z,101596.00
2022-08-06T09:40:23.056Z,101596.00
2022-08-06T09:40:34.985Z,101596.00
2022-08-06T09:40:46.232Z,101594.00
2022-08-06T09:40:58.304Z,101594.00
2022-08-06T09:41:15.722Z,101596.00
2022-08-06T09:41:21.440Z,101596.00
2022-08-06T09:41:33.215Z,101594.00
2022-08-06T09:41:44.704Z,101596.00
2022-08-06T09:41:55.941Z,101594.00
2022-08-06T09:42:07.424Z,101594.00
2022-08-06T09:42:18.728Z,101594.00
2022-08-06T09:42:30.612Z,101594.00
2022-08-06T09:42:41.853Z,101596.00
2022-08-06T09:42:52.212Z,101594.00
2022-08-06T09:43:03.038Z,101594.00
2022-08-06T09:43:14.575Z,101594.00
2022-08-06T09:43:24.812Z,101594.00
2022-08-06T09:44:03.339Z,101596.00
2022-08-06T09:44:03.560Z,101594.00
2022-08-06T09:44:04.218Z,101594.00
2022-08-06T09:44:37.195Z,101594.00
2022-08-06T09:44:37.707Z,101594.00
2022-08-06T09:44:41.552Z,101592.00
2022-08-06T09:44:47.645Z,101592.00
2022-08-06T09:44:59.026Z,101592.00
2022-08-06T09:45:16.363Z,101590.00
2022-08-06T09:45:42.755Z,101592.00
2022-08-06T09:45:42.888Z,101592.00
2022-08-06T09:45:46.643Z,101594.00
2022-08-06T09:46:00.162Z,101590.00
2022-08-06T09:46:09.382Z,101592.00
2022-08-06T09:46:20.888Z,101592.00
2022-08-06T09:46:33.208Z,101588.00
2022-08-06T09:46:44.011Z,101590.00
2022-08-06T09:46:55.360Z,101590.00
2022-08-06T09:47:06.730Z,101590.00
2022-08-06T09:47:22.296Z,101588.00
2022-08-06T09:47:33.342Z,101590.00
2022-08-06T09:47:40.557Z,101592.00
2022-08-06T09:47:58.940Z,101590.00
2022-08-06T09:48:03.762Z,101592.00
2022-08-06T09:48:16.985Z,101592.00
2022-08-06T09:48:26.931Z,101592.00
2022-08-06T09:48:39.057Z,101592.00
2022-08-06T09:49:19.567Z,101592.00
2022-08-06T09:49:47.419Z,101594.00
2022-08-06T09:49:48.352Z,101594.00
2022-08-06T09:49:49.143Z,101592.00
2022-08-06T09:49:50.574Z,101590.00
2022-08-06T09:50:00.407Z,101590.00
2022-08-06T09:50:01.255Z,101590.00
2022-08-06T09:50:12.560Z,101592.00
2022-08-06T09:50:24.493Z,101590.00
2022-08-06T09:50:36.569Z,101594.00
2022-08-06T09:50:48.199Z,101590.00
2022-08-06T09:51:00.276Z,101592.00
2022-08-06T09:51:14.597Z,101594.00
2022-08-06T09:51:26.597Z,101592.00
2022-08-06T09:51:50.630Z,101592.00
2022-08-06T09:51:51.415Z,101594.00
2022-08-06T09:51:58.573Z,101592.00
2022-08-06T09:52:09.821Z,101594.00
2022-08-06T09:52:22.140Z,101592.00
2022-08-06T09:52:31.452Z,101590.00
2022-08-06T09:52:42.955Z,101596.00
2022-08-06T09:52:54.172Z,101594.00
2022-08-06T09:53:06.035Z,101596.00
2022-08-06T09:53:18.996Z,101594.00
2022-08-06T09:53:28.081Z,101594.00
2022-08-06T09:53:50.869Z,101596.00
2022-08-06T09:54:05.767Z,101598.00
2022-08-06T09:54:21.889Z,101598.00
2022-08-06T09:54:24.446Z,101600.00
2022-08-06T09:54:27.739Z,101600.00
2022-08-06T09:54:38.985Z,101594.00
2022-08-06T09:54:52.908Z,101596.00
2022-08-06T09:55:03.693Z,101596.00
2022-08-06T09:55:17.030Z,101596.00
2022-08-06T09:55:24.350Z,101594.00
2022-08-06T09:55:38.252Z,101594.00
2022-08-06T09:55:46.361Z,101594.00
2022-08-06T09:55:58.354Z,101598.00
2022-08-06T09:56:09.884Z,101594.00
2022-08-06T09:56:21.112Z,101596.00
2022-08-06T09:56:31.141Z,101596.00